createdAt,value
2018-11-26T00:00:44.346Z,22.90
2018-11-26T00:05:47.709Z,22.35
2018-11-26T00:11:05.986Z,20.95
2018-11-26T00:16:09.273Z,20.75
2018-11-26T00:21:17.519Z,20.50
2018-11-26T00:26:21.007Z,19.02
2018-11-26T00:31:24.308Z,20.35
2018-11-26T00:36:27.643Z,19.07
2018-11-26T00:41:30.961Z,19.92
2018-11-26T00:46:34.290Z,21.07
2018-11-26T00:51:37.782Z,18.67
2018-11-26T00:56:41.137Z,18.12
2018-11-26T01:01:44.710Z,18.62
2018-11-26T01:06:48.252Z,19.15
2018-11-26T01:11:51.769Z,18.17
2018-11-26T01:16:56.230Z,19.90
2018-11-26T01:21:59.617Z,18.82
2018-11-26T01:32:33.878Z,20.72
2018-11-26T01:37:37.409Z,19.80
2018-11-26T01:42:42.357Z,19.80
2018-11-26T01:47:49.283Z,20.30
2018-11-26T01:52:52.941Z,21.10
2018-11-26T01:57:57.186Z,22.22
2018-11-26T02:03:00.730Z,20.12
2018-11-26T02:08:04.170Z,18.80
2018-11-26T02:13:07.618Z,20.88
2018-11-26T02:18:11.538Z,20.43
2018-11-26T02:23:14.969Z,21.05
2018-11-26T02:28:18.495Z,20.52
2018-11-26T02:33:21.951Z,21.00
2018-11-26T02:38:25.421Z,20.57
2018-11-26T02:43:30.591Z,21.30
2018-11-26T02:48:35.976Z,20.55
2018-11-26T02:53:39.355Z,20.27
2018-11-26T02:58:43.847Z,19.37
2018-11-26T03:03:47.251Z,20.32
2018-11-26T03:08:50.669Z,19.13
2018-11-26T03:13:54.136Z,20.00
2018-11-26T03:18:57.663Z,21.20
2018-11-26T03:24:01.220Z,19.10
2018-11-26T03:29:04.900Z,20.50
2018-11-26T03:34:08.268Z,20.10
2018-11-26T03:39:12.558Z,20.10
2018-11-26T03:44:15.850Z,18.00
2018-11-26T03:49:19.366Z,22.73
2018-11-26T03:54:22.759Z,19.97
2018-11-26T03:59:27.613Z,20.40
2018-11-26T04:04:31.270Z,19.25
2018-11-26T04:09:34.795Z,19.60
2018-11-26T04:14:38.247Z,20.80
2018-11-26T04:19:41.667Z,20.72
2018-11-26T04:24:45.162Z,19.87
2018-11-26T04:29:48.593Z,19.90
2018-11-26T04:34:53.404Z,20.85
2018-11-26T04:39:56.809Z,23.10
2018-11-26T04:56:05.897Z,23.27
2018-11-26T05:01:13.059Z,25.08
2018-11-26T05:06:16.394Z,23.83
2018-11-26T05:11:20.472Z,24.50
2018-11-26T05:16:23.886Z,27.70
2018-11-26T05:21:28.445Z,27.05
2018-11-26T05:26:31.999Z,25.77
2018-11-26T05:31:35.399Z,27.23
2018-11-26T05:36:39.378Z,24.27
2018-11-26T05:41:42.806Z,26.95
2018-11-26T05:46:46.135Z,29.30
2018-11-26T05:51:50.284Z,30.43
2018-11-26T05:56:54.434Z,30.00
2018-11-26T06:01:58.895Z,28.50
2018-11-26T06:07:02.360Z,29.40
2018-11-26T06:12:05.819Z,29.40
2018-11-26T06:17:09.706Z,31.68
2018-11-26T06:22:13.204Z,34.83
2018-11-26T06:27:17.541Z,34.47
2018-11-26T06:38:02.453Z,31.82
2018-11-26T06:43:07.213Z,33.05
2018-11-26T06:53:59.896Z,33.25
2018-11-26T06:59:04.283Z,30.50
2018-11-26T07:04:08.757Z,30.50
2018-11-26T07:09:12.290Z,29.60
2018-11-26T07:14:16.929Z,26.60
2018-11-26T07:19:20.356Z,28.42
2018-11-26T07:24:23.885Z,25.32
2018-11-26T07:29:30.827Z,26.77
2018-11-26T07:34:34.900Z,29.67
2018-11-26T07:39:40.785Z,25.23
2018-11-26T07:44:44.244Z,23.75
2018-11-26T07:49:48.071Z,23.52
2018-11-26T07:54:52.032Z,23.60
2018-11-26T07:59:55.528Z,22.97
2018-11-26T08:04:58.997Z,21.65
2018-11-26T08:10:02.452Z,21.35
2018-11-26T08:15:12.316Z,23.00
2018-11-26T08:20:15.722Z,22.07
2018-11-26T08:25:20.193Z,22.53
2018-11-26T08:30:27.821Z,23.80
2018-11-26T08:35:33.545Z,23.60
2018-11-26T08:40:42.866Z,22.90
2018-11-26T08:45:54.478Z,18.10
2018-11-26T08:50:59.939Z,19.20
2018-11-26T08:56:03.368Z,18.35
2018-11-26T09:01:10.948Z,20.43
2018-11-26T09:06:14.361Z,20.37
2018-11-26T09:11:19.906Z,19.57
2018-11-26T09:16:23.256Z,18.63
2018-11-26T09:21:26.595Z,19.57
2018-11-26T09:26:30.085Z,19.40
2018-11-26T09:31:33.929Z,20.50
2018-11-26T09:36:37.304Z,19.65
2018-11-26T09:41:42.427Z,21.42
2018-11-26T09:46:47.153Z,18.52
2018-11-26T09:51:50.528Z,20.65
2018-11-26T09:56:53.862Z,18.17
2018-11-26T10:01:57.262Z,19.10
2018-11-26T10:07:00.628Z,17.07
2018-11-26T10:12:10.963Z,19.60
2018-11-26T10:17:14.444Z,18.48
2018-11-26T10:22:18.237Z,17.03
2018-11-26T10:27:22.498Z,17.85
2018-11-26T10:32:25.865Z,15.70
2018-11-26T10:42:33.479Z,16.57
2018-11-26T10:47:36.978Z,14.60
2018-11-26T10:52:43.638Z,15.87
2018-11-26T10:57:47.042Z,13.48
2018-11-26T11:02:51.051Z,14.38
2018-11-26T11:07:54.466Z,13.23
2018-11-26T11:12:58.021Z,13.73
2018-11-26T11:18:01.521Z,16.07
2018-11-26T11:23:04.892Z,15.38
2018-11-26T11:28:08.469Z,13.60
2018-11-26T11:38:14.574Z,13.75
2018-11-26T11:49:12.073Z,12.50
2018-11-26T11:54:15.581Z,13.40
2018-11-26T11:59:19.815Z,15.20
2018-11-26T12:04:28.392Z,13.45
2018-11-26T12:09:36.160Z,14.47
2018-11-26T12:14:49.272Z,13.80
2018-11-26T12:19:54.185Z,13.83
2018-11-26T12:25:05.595Z,14.13
2018-11-26T12:30:14.143Z,15.88
2018-11-26T12:36:22.890Z,16.60
2018-11-26T12:41:26.437Z,16.03
2018-11-26T12:46:30.005Z,14.63
2018-11-26T12:51:33.548Z,15.40
2018-11-26T12:56:37.013Z,14.85
2018-11-26T13:01:40.868Z,15.68
2018-11-26T13:06:47.637Z,14.78
2018-11-26T13:11:51.349Z,15.78
2018-11-26T13:16:55.263Z,17.35
2018-11-26T13:21:59.486Z,16.70
2018-11-26T13:27:03.631Z,17.00
2018-11-26T13:32:08.070Z,14.65
2018-11-26T13:37:11.694Z,18.35
2018-11-26T13:42:18.329Z,17.32
2018-11-26T13:47:21.787Z,18.13
2018-11-26T13:52:25.368Z,18.90
2018-11-26T13:57:31.433Z,18.90
2018-11-26T14:02:35.772Z,18.45
2018-11-26T14:23:56.081Z,19.00
2018-11-26T14:29:02.284Z,18.17
2018-11-26T14:34:06.956Z,17.12
2018-11-26T14:39:24.397Z,18.12
2018-11-26T14:44:31.254Z,15.23
2018-11-26T14:49:35.092Z,14.00
2018-11-26T14:54:39.204Z,15.80
2018-11-26T15:05:29.493Z,15.58
2018-11-26T15:10:49.400Z,15.53
2018-11-26T15:16:13.344Z,17.62
2018-11-26T15:21:17.370Z,15.80
2018-11-26T15:26:21.624Z,16.05
2018-11-26T15:31:26.709Z,18.27
2018-11-26T15:36:30.251Z,18.57
2018-11-26T15:41:33.575Z,16.65
2018-11-26T15:46:38.507Z,17.87
2018-11-26T15:51:41.748Z,17.50
2018-11-26T16:02:13.961Z,18.82
2018-11-26T16:07:17.250Z,21.30
2018-11-26T16:12:23.772Z,20.77
2018-11-26T16:17:27.120Z,22.60
2018-11-26T16:22:30.539Z,23.20
2018-11-26T16:27:33.858Z,22.87
2018-11-26T16:32:37.162Z,22.67
2018-11-26T16:37:40.462Z,23.83
2018-11-26T16:42:43.828Z,23.00
2018-11-26T16:53:23.888Z,22.80
2018-11-26T16:58:27.301Z,26.27
2018-11-26T17:03:30.614Z,25.90
2018-11-26T17:08:33.950Z,25.17
2018-11-26T17:13:37.283Z,25.10
2018-11-26T17:18:40.759Z,23.90
2018-11-26T17:23:44.164Z,27.73
2018-11-26T17:28:52.756Z,25.30
2018-11-26T17:33:56.200Z,24.85
2018-11-26T17:39:00.292Z,23.47
2018-11-26T17:44:04.264Z,24.75
2018-11-26T17:49:08.764Z,24.10
2018-11-26T17:54:12.104Z,26.17
2018-11-26T17:59:15.421Z,23.90
2018-11-26T18:04:18.891Z,27.60
2018-11-26T18:09:27.255Z,26.33
2018-11-26T18:14:30.634Z,22.60
2018-11-26T18:19:35.002Z,24.63
2018-11-26T18:24:38.660Z,23.87
2018-11-26T18:29:42.069Z,25.30
2018-11-26T18:34:45.569Z,23.85
2018-11-26T18:39:48.948Z,26.33
2018-11-26T18:44:52.418Z,26.30
2018-11-26T18:50:14.387Z,28.30
2018-11-26T18:55:19.444Z,29.00
2018-11-26T19:00:24.292Z,29.55
2018-11-26T19:05:27.719Z,30.23
2018-11-26T19:10:33.556Z,30.43
2018-11-26T19:15:38.348Z,28.00
2018-11-26T19:20:41.736Z,30.07
2018-11-26T19:25:45.727Z,28.83
2018-11-26T19:30:49.090Z,35.13
2018-11-26T19:35:52.419Z,32.80
2018-11-26T19:40:55.778Z,30.35
2018-11-26T19:45:59.195Z,28.70
2018-11-26T19:51:02.614Z,30.97
2018-11-26T19:56:06.123Z,30.27
2018-11-26T20:01:09.491Z,29.42
2018-11-26T20:06:22.211Z,29.85
2018-11-26T20:11:32.961Z,29.42
2018-11-26T20:21:54.387Z,25.83
2018-11-26T20:27:00.852Z,26.80
2018-11-26T20:32:05.676Z,26.05
2018-11-26T20:37:09.190Z,28.03
2018-11-26T20:42:14.435Z,26.77
2018-11-26T20:47:18.710Z,24.65
2018-11-26T20:52:24.198Z,27.05
2018-11-26T20:57:27.814Z,24.75
2018-11-26T21:02:31.293Z,25.75
2018-11-26T21:07:36.140Z,25.00
2018-11-26T21:12:44.341Z,21.45
2018-11-26T21:17:50.685Z,21.73
2018-11-26T21:22:54.584Z,22.50
2018-11-26T21:27:58.191Z,22.90
2018-11-26T21:33:01.854Z,21.23
2018-11-26T21:38:06.292Z,22.02
2018-11-26T21:43:11.052Z,21.93
2018-11-26T21:53:43.038Z,20.40
